Time;durP1;ratioP1;P1;durP2;ratioP2;P2;SDS_P1;SDS_P2;PMS_P1;PMS_P2;Temp;Humidity;BMP_temperature;BMP_pressure;BME280_temperature;BME280_humidity;BME280_pressure;Samples;Min_cycle;Max_cycle;Signal;HPM_P1;HPM_P2
2022/12/03 00:00:35;;;;;;;93.40;28.93;;;;;;;-3.78;100.00;101083.41;4201630;28;20240;-67
2022/12/03 00:03:02;;;;;;;90.50;28.53;;;;;;;-3.62;100.00;101071.72;4203631;28;20912;-66
2022/12/03 00:05:29;;;;;;;98.87;28.40;;;;;;;-3.72;100.00;101073.69;4204739;28;20241;-65
2022/12/03 00:07:56;;;;;;;83.97;26.37;;;;;;;-3.59;100.00;101076.84;4207004;28;21781;-65
2022/12/03 00:10:22;;;;;;;102.40;29.00;;;;;;;-3.63;100.00;101070.88;4200015;28;25554;-66
2022/12/03 00:12:49;;;;;;;90.90;27.77;;;;;;;-3.58;100.00;101068.16;4205778;28;20262;-65
2022/12/03 00:15:16;;;;;;;93.17;27.70;;;;;;;-3.63;100.00;101067.41;4201476;28;20241;-67
2022/12/03 00:17:42;;;;;;;91.80;27.93;;;;;;;-3.64;100.00;101069.16;4202942;28;20233;-66
2022/12/03 00:20:16;;;;;;;95.90;29.00;;;;;;;-3.52;100.00;101075.78;4202254;28;20248;-65
2022/12/03 00:22:43;;;;;;;91.67;29.27;;;;;;;-3.65;100.00;101066.59;4207748;28;20409;-65
2022/12/03 00:25:10;;;;;;;94.17;28.30;;;;;;;-3.48;100.00;101069.59;4207685;28;20767;-66
2022/12/03 00:27:36;;;;;;;102.80;28.10;;;;;;;-3.62;100.00;101066.53;4204092;28;20760;-65
2022/12/03 00:30:04;;;;;;;101.03;28.33;;;;;;;-3.62;100.00;101063.91;4198488;28;20241;-69
2022/12/03 00:32:31;;;;;;;101.27;28.73;;;;;;;-3.58;100.00;101068.16;4201980;28;20229;-68
2022/12/03 00:34:57;;;;;;;94.07;28.50;;;;;;;-3.58;100.00;101062.06;4202201;28;20297;-67
2022/12/03 00:37:24;;;;;;;109.77;30.07;;;;;;;-3.62;100.00;101050.91;4203646;28;20284;-65
2022/12/03 00:39:50;;;;;;;95.10;27.80;;;;;;;-3.67;100.00;101058.84;4199635;28;20327;-68
2022/12/03 00:42:17;;;;;;;100.13;29.70;;;;;;;-3.72;100.00;101055.50;4205878;28;22065;-68
2022/12/03 00:44:44;;;;;;;93.40;28.00;;;;;;;-3.79;100.00;101046.16;4204018;28;20233;-67
2022/12/03 00:47:11;;;;;;;102.37;29.27;;;;;;;-3.74;100.00;101053.84;4200684;28;20392;-67
2022/12/03 00:49:38;;;;;;;92.33;27.33;;;;;;;-3.68;100.00;101056.25;4199626;28;20246;-68
2022/12/03 00:52:04;;;;;;;104.27;29.40;;;;;;;-3.63;100.00;101054.38;4204342;28;20249;-67
2022/12/03 00:54:31;;;;;;;98.77;28.73;;;;;;;-3.75;100.00;101054.72;4205916;28;20477;-65
2022/12/03 00:56:58;;;;;;;108.43;28.53;;;;;;;-3.66;100.00;101059.69;4211748;28;20712;-69
2022/12/03 00:59:24;;;;;;;95.80;28.33;;;;;;;-3.71;100.00;101051.16;4231725;28;20246;-66
2022/12/03 01:01:51;;;;;;;90.27;28.17;;;;;;;-3.73;100.00;101052.94;4210465;28;20235;-68
2022/12/03 01:04:18;;;;;;;96.00;28.33;;;;;;;-3.74;100.00;101054.69;4205238;28;20326;-68
2022/12/03 01:06:44;;;;;;;96.03;28.10;;;;;;;-3.71;100.00;101046.78;4208891;28;23585;-67
2022/12/03 01:09:11;;;;;;;98.17;28.13;;;;;;;-3.71;100.00;101043.34;4207476;28;20276;-69
2022/12/03 01:11:39;;;;;;;88.40;26.67;;;;;;;-3.66;100.00;101044.91;4196857;28;20229;-64
2022/12/03 01:14:11;;;;;;;90.87;28.10;;;;;;;-3.72;100.00;101044.22;4210988;28;20309;-66
2022/12/03 01:16:38;;;;;;;88.93;27.30;;;;;;;-3.73;100.00;101045.13;4210403;28;20787;-67
2022/12/03 01:19:06;;;;;;;98.63;27.63;;;;;;;-3.80;100.00;101038.38;4215183;28;20244;-64
2022/12/03 01:21:33;;;;;;;86.60;26.67;;;;;;;-3.75;100.00;101045.16;4219314;28;20286;-66
2022/12/03 01:24:00;;;;;;;91.43;27.33;;;;;;;-3.69;100.00;101044.16;4205566;28;20451;-66
2022/12/03 01:26:27;;;;;;;105.17;29.03;;;;;;;-3.73;100.00;101040.78;4207901;28;21236;-67
2022/12/03 01:28:54;;;;;;;96.93;28.40;;;;;;;-3.62;100.00;101035.31;4208126;28;20255;-67
2022/12/03 01:34:06;;;;;;;89.37;26.73;;;;;;;-3.62;100.00;101036.16;4206830;28;20865;-67
2022/12/03 01:36:35;;;;;;;98.80;27.80;;;;;;;-3.63;100.00;101047.47;4209813;28;20761;-65
2022/12/03 01:39:03;;;;;;;88.30;26.17;;;;;;;-3.58;100.00;101039.53;4200158;28;20229;-65
2022/12/03 01:41:30;;;;;;;90.97;27.37;;;;;;;-3.68;100.00;101038.06;4203010;28;20652;-68
2022/12/03 01:43:57;;;;;;;92.90;26.70;;;;;;;-3.60;100.00;101038.72;4204894;28;20234;-67
2022/12/03 01:46:29;;;;;;;86.33;26.10;;;;;;;-3.55;100.00;101039.44;4201829;28;20276;-67
2022/12/03 01:48:56;;;;;;;90.87;26.13;;;;;;;-3.69;100.00;101033.75;4210680;28;20857;-68
2022/12/03 01:51:22;;;;;;;93.60;26.23;;;;;;;-3.68;100.00;101036.31;4207763;28;20221;-70
2022/12/03 01:53:49;;;;;;;89.43;25.33;;;;;;;-3.75;100.00;101039.94;4219902;28;20484;-68
2022/12/03 01:56:17;;;;;;;86.47;26.23;;;;;;;-3.72;100.00;101036.41;4200240;28;20254;-67
2022/12/03 01:58:44;;;;;;;87.97;25.67;;;;;;;-3.72;100.00;101039.91;4201443;28;20234;-68
2022/12/03 02:01:13;;;;;;;80.50;25.03;;;;;;;-3.72;100.00;101039.03;4186680;28;20245;-66
2022/12/03 02:03:41;;;;;;;74.70;25.13;;;;;;;-3.69;100.00;101036.38;4198477;28;20755;-67
2022/12/03 02:06:19;;;;;;;82.53;25.43;;;;;;;-3.61;100.00;101037.00;4199308;28;20249;-68
2022/12/03 02:08:47;;;;;;;82.87;25.37;;;;;;;-3.63;100.00;101036.19;4185835;28;21236;-67
2022/12/03 02:11:41;;;;;;;80.60;26.57;;;;;;;-3.63;100.00;101041.38;4202923;28;20237;-66
2022/12/03 02:14:10;;;;;;;83.43;25.73;;;;;;;-3.59;100.00;101037.81;4204166;28;21132;-68
2022/12/03 02:16:38;;;;;;;81.23;25.30;;;;;;;-3.60;100.00;101038.72;4184597;28;22976;-66
2022/12/03 02:19:28;;;;;;;76.00;24.53;;;;;;;-3.61;100.00;101042.19;4200041;28;20293;-69
2022/12/03 02:22:23;;;;;;;73.03;24.67;;;;;;;-3.43;100.00;101041.72;4207125;28;20236;-67
2022/12/03 02:25:35;;;;;;;82.50;24.60;;;;;;;-3.45;100.00;101047.84;4191861;28;20228;-69
2022/12/03 02:28:02;;;;;;;66.80;23.40;;;;;;;-3.43;100.00;101041.72;4213456;28;20263;-67
2022/12/03 02:30:30;;;;;;;77.97;24.77;;;;;;;-3.44;100.00;101042.63;4198380;28;20282;-67
2022/12/03 02:32:57;;;;;;;68.20;23.20;;;;;;;-3.47;100.00;101040.09;4199116;28;20367;-66
2022/12/03 02:35:29;;;;;;;66.70;23.13;;;;;;;-3.43;100.00;101052.13;4203115;28;21310;-67
2022/12/03 02:38:12;;;;;;;68.20;22.47;;;;;;;-3.40;100.00;101046.84;4203631;28;20232;-69
2022/12/03 02:40:40;;;;;;;63.37;22.27;;;;;;;-3.45;100.00;101040.06;4204910;28;20535;-68
2022/12/03 02:43:06;;;;;;;68.30;23.13;;;;;;;-3.47;100.00;101032.28;4199446;28;22750;-66
2022/12/03 02:45:40;;;;;;;71.87;24.13;;;;;;;-3.55;100.00;101039.44;4199675;28;21964;-64
2022/12/03 02:48:11;;;;;;;63.50;23.27;;;;;;;-3.59;100.00;101040.41;4208356;28;20240;-66
2022/12/03 02:50:42;;;;;;;66.03;22.40;;;;;;;-3.45;100.00;101037.44;4203283;28;21295;-66
2022/12/03 02:53:13;;;;;;;66.03;22.93;;;;;;;-3.33;100.00;101036.28;4201402;28;20302;-67
2022/12/03 02:55:40;;;;;;;73.70;23.53;;;;;;;-3.28;100.00;101043.06;4212020;28;20278;-69
2022/12/03 02:58:06;;;;;;;59.67;21.53;;;;;;;-3.37;100.00;101035.50;4191853;28;20233;-69
2022/12/03 03:00:34;;;;;;;67.43;22.97;;;;;;;-3.36;100.00;101036.38;4192496;28;25069;-66
2022/12/03 03:03:02;;;;;;;64.27;22.23;;;;;;;-3.32;100.00;101038.00;4194731;28;23031;-68
2022/12/03 03:05:29;;;;;;;60.83;21.90;;;;;;;-3.33;100.00;101033.66;4183550;28;21618;-68
2022/12/03 03:07:57;;;;;;;65.27;22.03;;;;;;;-3.19;100.00;101039.34;4198072;28;20225;-67
2022/12/03 03:10:24;;;;;;;59.00;21.77;;;;;;;-3.38;100.00;101036.41;4194328;28;20329;-67
2022/12/03 03:12:53;;;;;;;58.13;20.73;;;;;;;-3.46;100.00;101034.00;4195921;28;20227;-66
2022/12/03 03:15:20;;;;;;;57.87;21.70;;;;;;;-3.38;100.00;101035.53;4192315;28;20413;-65
2022/12/03 03:17:46;;;;;;;56.57;21.63;;;;;;;-3.43;100.00;101030.47;4197885;28;20431;-69
2022/12/03 03:20:13;;;;;;;61.10;21.40;;;;;;;-3.36;100.00;101036.38;4194217;28;20236;-66
2022/12/03 03:22:41;;;;;;;56.07;21.03;;;;;;;-3.34;100.00;101024.16;4197337;28;20239;-67
2022/12/03 03:25:09;;;;;;;55.93;21.13;;;;;;;-3.33;100.00;101031.91;4190083;28;20407;-66
2022/12/03 03:27:36;;;;;;;57.73;21.07;;;;;;;-3.41;100.00;101021.72;4203261;28;22050;-69
2022/12/03 03:30:04;;;;;;;56.53;20.50;;;;;;;-3.49;100.00;101021.09;4193088;28;20233;-69
2022/12/03 03:32:30;;;;;;;60.27;20.47;;;;;;;-3.44;100.00;101028.78;4214107;28;21444;-67
2022/12/03 03:34:57;;;;;;;56.20;20.87;;;;;;;-3.39;100.00;101029.50;4200207;28;20406;-66
2022/12/03 03:37:24;;;;;;;53.23;20.83;;;;;;;-3.44;100.00;101027.00;4196071;28;20792;-67
2022/12/03 03:39:51;;;;;;;57.30;20.87;;;;;;;-3.52;100.00;101023.75;4197395;28;20243;-68
2022/12/03 03:42:17;;;;;;;50.67;19.57;;;;;;;-3.31;100.00;101027.53;4195717;28;20312;-67
2022/12/03 03:44:44;;;;;;;56.57;20.13;;;;;;;-3.46;100.00;101021.00;4200799;28;20231;-68
2022/12/03 03:47:10;;;;;;;63.07;21.87;;;;;;;-3.36;100.00;101020.75;4195223;28;21988;-65
2022/12/03 03:49:37;;;;;;;54.40;21.07;;;;;;;-3.53;100.00;101024.66;4198593;28;20270;-67
2022/12/03 03:52:04;;;;;;;57.90;21.40;;;;;;;-3.45;100.00;101012.28;4196467;28;20236;-68
2022/12/03 03:54:30;;;;;;;55.17;21.33;;;;;;;-3.29;100.00;101012.72;4200641;28;20783;-66
2022/12/03 03:56:57;;;;;;;53.47;20.83;;;;;;;-3.34;100.00;101011.16;4198641;28;20916;-66
2022/12/03 03:59:23;;;;;;;54.47;21.07;;;;;;;-3.36;100.00;101015.53;4199743;28;20226;-67
2022/12/03 04:01:50;;;;;;;58.80;21.10;;;;;;;-3.36;100.00;101012.94;4195197;28;20299;-68
2022/12/03 04:04:19;;;;;;;55.03;21.10;;;;;;;-3.47;100.00;101014.06;4194152;28;20251;-66
2022/12/03 04:06:46;;;;;;;58.20;21.27;;;;;;;-3.38;100.00;101015.56;4199134;28;20775;-66
2022/12/03 04:09:13;;;;;;;56.77;21.43;;;;;;;-3.40;100.00;101018.22;4184879;28;20304;-68
2022/12/03 04:14:25;;;;;;;59.63;21.50;;;;;;;-3.31;100.00;101011.06;4189583;28;20728;-66
2022/12/03 04:16:51;;;;;;;57.60;22.00;;;;;;;-3.43;100.00;101014.84;4197171;28;20255;-70
2022/12/03 04:19:18;;;;;;;57.83;22.03;;;;;;;-3.47;100.00;101019.28;4192178;28;21266;-65
2022/12/03 04:24:30;;;;;;;57.33;21.50;;;;;;;-3.46;100.00;101015.78;4196990;28;20674;-66
2022/12/03 04:29:42;;;;;;;55.07;20.70;;;;;;;-3.38;100.00;101012.13;4195997;28;20382;-65
2022/12/03 04:37:39;;;;;;;49.53;20.00;;;;;;;-3.32;100.00;101006.75;4201789;28;20313;-66
2022/12/03 04:40:59;;;;;;;54.57;21.20;;;;;;;-3.29;100.00;101011.88;4196051;28;20232;-67
2022/12/03 04:42:52;;;;;;;59.23;20.93;;;;;;;-3.31;100.00;101005.84;4197337;28;21166;-67
2022/12/03 04:45:19;;;;;;;59.03;22.33;;;;;;;-3.27;100.00;101004.88;4193723;28;20428;-67
2022/12/03 04:47:45;;;;;;;57.87;22.30;;;;;;;-3.35;100.00;101001.63;4190661;28;20463;-66
2022/12/03 04:50:12;;;;;;;53.53;22.93;;;;;;;-3.27;100.00;101004.88;4192160;28;22273;-66
2022/12/03 04:52:38;;;;;;;53.77;21.40;;;;;;;-3.21;100.00;100999.47;4200776;28;20232;-67
2022/12/03 04:55:05;;;;;;;57.23;22.30;;;;;;;-3.27;100.00;100997.91;4198020;28;20660;-67
2022/12/03 04:57:32;;;;;;;58.43;22.20;;;;;;;-3.28;100.00;100995.34;4193925;28;20229;-69
2022/12/03 04:59:58;;;;;;;61.10;20.90;;;;;;;-3.21;100.00;101000.38;4194192;28;22287;-69
2022/12/03 05:02:25;;;;;;;56.03;21.07;;;;;;;-3.22;100.00;100996.03;4194051;28;20402;-69
2022/12/03 05:04:52;;;;;;;56.77;21.97;;;;;;;-3.24;100.00;101000.44;4191939;28;20355;-67
2022/12/03 05:07:18;;;;;;;58.00;21.23;;;;;;;-3.33;100.00;100992.03;4200456;28;20279;-65
2022/12/03 05:09:45;;;;;;;51.37;20.43;;;;;;;-3.29;100.00;100997.09;4197159;28;20519;-69
2022/12/03 05:12:11;;;;;;;52.23;20.93;;;;;;;-3.34;100.00;100993.78;4193038;28;20844;-67
2022/12/03 05:14:38;;;;;;;58.80;21.70;;;;;;;-3.42;100.00;100996.63;4195478;28;20663;-67
2022/12/03 05:17:04;;;;;;;59.83;21.53;;;;;;;-3.42;100.00;100991.41;4195302;28;20242;-68
2022/12/03 05:22:16;;;;;;;51.83;20.30;;;;;;;-3.34;100.00;100995.53;4194691;28;20232;-67
2022/12/03 05:24:43;;;;;;;51.23;20.83;;;;;;;-3.34;100.00;100992.94;4198274;28;20369;-69
2022/12/03 05:27:09;;;;;;;53.47;20.50;;;;;;;-3.35;100.00;100997.28;4195173;28;22111;-68
2022/12/03 05:29:35;;;;;;;58.13;21.43;;;;;;;-3.27;100.00;100999.69;4191700;28;20855;-69
2022/12/03 05:32:03;;;;;;;53.13;20.57;;;;;;;-3.28;100.00;100998.84;4193557;28;20612;-68
2022/12/03 05:34:29;;;;;;;54.70;21.40;;;;;;;-3.22;100.00;100996.03;4193959;28;22243;-68
2022/12/03 05:36:56;;;;;;;61.90;22.00;;;;;;;-3.24;100.00;100994.38;4193453;28;20413;-67
2022/12/03 05:39:22;;;;;;;49.57;20.20;;;;;;;-3.20;100.00;100981.22;4191687;28;21595;-68
2022/12/03 05:44:34;;;;;;;59.20;20.93;;;;;;;-3.26;100.00;100980.56;4208473;28;21749;-66
2022/12/03 05:47:01;;;;;;;50.83;20.50;;;;;;;-3.21;100.00;100986.47;4193977;28;20247;-66
2022/12/03 05:49:27;;;;;;;62.90;22.00;;;;;;;-3.25;100.00;100982.28;4192402;28;20239;-69
2022/12/03 05:51:54;;;;;;;51.40;21.13;;;;;;;-3.20;100.00;100980.38;4195338;28;20235;-66
2022/12/03 05:54:24;;;;;;;56.17;21.13;;;;;;;-3.12;100.00;100978.41;4191547;28;20234;-67
2022/12/03 05:56:50;;;;;;;55.60;21.20;;;;;;;-3.13;100.00;100976.72;4188476;28;21551;-66
2022/12/03 05:59:17;;;;;;;63.60;22.13;;;;;;;-3.13;100.00;100975.88;4194230;28;20233;-67
2022/12/03 06:01:43;;;;;;;53.40;21.87;;;;;;;-3.18;100.00;100970.78;4199170;28;21181;-67
2022/12/03 06:04:10;;;;;;;51.83;21.27;;;;;;;-3.11;100.00;100980.13;4198591;28;20305;-66
2022/12/03 06:06:37;;;;;;;57.93;22.57;;;;;;;-2.99;100.00;100978.91;4190521;28;20409;-66
2022/12/03 06:09:04;;;;;;;57.00;20.43;;;;;;;-3.00;100.00;100970.25;4191143;28;20232;-66
2022/12/03 06:11:32;;;;;;;51.27;21.20;;;;;;;-3.00;100.00;100972.84;4197532;28;20517;-67
2022/12/03 06:14:00;;;;;;;50.20;20.87;;;;;;;-3.11;100.00;100985.34;4194094;28;20245;-67
2022/12/03 06:16:26;;;;;;;54.47;20.87;;;;;;;-3.25;100.00;100972.72;4191112;28;20234;-66
2022/12/03 06:18:53;;;;;;;55.20;22.17;;;;;;;-3.15;100.00;100972.44;4193151;28;20247;-67
2022/12/03 06:21:19;;;;;;;52.80;21.50;;;;;;;-3.18;100.00;100978.59;4194419;28;22905;-66
2022/12/03 06:23:46;;;;;;;50.97;21.23;;;;;;;-3.13;100.00;100981.91;4196805;28;20242;-65
2022/12/03 06:26:13;;;;;;;49.67;20.97;;;;;;;-3.09;100.00;100986.16;4191835;28;22328;-66
2022/12/03 06:28:45;;;;;;;54.23;20.90;;;;;;;-3.03;100.00;100985.09;4195081;28;20241;-69
2022/12/03 06:31:12;;;;;;;52.20;20.40;;;;;;;-2.99;100.00;100990.16;4191844;28;20243;-68
2022/12/03 06:33:38;;;;;;;59.17;21.80;;;;;;;-3.01;100.00;100993.72;4198726;28;20240;-68
2022/12/03 06:36:05;;;;;;;52.10;20.83;;;;;;;-3.10;100.00;100994.00;4191749;28;20227;-68
2022/12/03 06:38:32;;;;;;;53.97;21.00;;;;;;;-3.08;100.00;100992.19;4193453;28;22106;-66
2022/12/03 06:40:59;;;;;;;57.47;23.10;;;;;;;-2.95;100.00;101003.09;4190788;28;20395;-65
2022/12/03 06:43:25;;;;;;;57.07;21.07;;;;;;;-2.94;100.00;101007.41;4194291;28;20240;-66
2022/12/03 06:45:52;;;;;;;51.23;20.23;;;;;;;-3.01;100.00;101007.59;4192769;28;21799;-66
2022/12/03 06:48:18;;;;;;;54.60;20.93;;;;;;;-3.00;100.00;101006.72;4195267;28;20265;-67
2022/12/03 06:50:45;;;;;;;55.73;21.83;;;;;;;-3.03;100.00;101003.31;4193451;28;20763;-69
2022/12/03 06:53:11;;;;;;;50.23;20.70;;;;;;;-2.98;100.00;101012.69;4196919;28;22376;-67
2022/12/03 06:55:38;;;;;;;54.43;21.00;;;;;;;-2.86;100.00;101018.44;4203037;28;20238;-70
2022/12/03 06:58:04;;;;;;;53.23;20.80;;;;;;;-2.93;100.00;101009.09;4197753;28;20244;-68
2022/12/03 07:00:30;;;;;;;55.13;22.03;;;;;;;-2.87;100.00;101004.56;4196164;28;21208;-65
2022/12/03 07:02:57;;;;;;;58.70;21.80;;;;;;;-2.79;100.00;101012.16;4199759;28;20243;-66
2022/12/03 07:05:23;;;;;;;59.93;21.83;;;;;;;-2.66;100.00;101012.66;4200072;28;20241;-66
2022/12/03 07:07:50;;;;;;;52.63;20.73;;;;;;;-2.78;100.00;101009.50;4193151;28;21056;-67
2022/12/03 07:10:18;;;;;;;48.63;20.97;;;;;;;-2.68;100.00;101017.91;4200583;28;20413;-66
2022/12/03 07:12:44;;;;;;;53.50;21.40;;;;;;;-2.80;100.00;101007.84;4194382;28;21518;-67
2022/12/03 07:15:11;;;;;;;60.20;21.77;;;;;;;-2.86;100.00;101006.28;4197509;28;20302;-66
2022/12/03 07:17:37;;;;;;;57.63;21.60;;;;;;;-2.83;100.00;101005.34;4201274;28;25394;-69
2022/12/03 07:20:05;;;;;;;55.23;21.50;;;;;;;-2.67;100.00;101003.13;4193830;28;20237;-66
2022/12/03 07:22:31;;;;;;;55.53;21.17;;;;;;;-2.68;100.00;100999.66;4215788;28;20239;-66
2022/12/03 07:24:58;;;;;;;58.77;21.83;;;;;;;-2.76;100.00;101012.94;4201056;28;25589;-67
2022/12/03 07:27:24;;;;;;;54.87;21.87;;;;;;;-2.73;100.00;101005.94;4202439;28;20306;-68
2022/12/03 07:29:51;;;;;;;52.47;21.67;;;;;;;-2.67;100.00;101001.38;4193650;28;20400;-69
2022/12/03 07:32:18;;;;;;;50.87;20.20;;;;;;;-2.55;100.00;101003.59;4211265;28;20310;-70
2022/12/03 07:34:44;;;;;;;49.13;20.40;;;;;;;-2.68;100.00;100998.81;4196818;28;20764;-68
2022/12/03 07:37:11;;;;;;;52.63;21.07;;;;;;;-2.77;100.00;100997.34;4197398;28;20229;-67
2022/12/03 07:39:37;;;;;;;59.40;21.80;;;;;;;-2.71;100.00;100998.94;4194411;28;20236;-68
2022/12/03 07:42:04;;;;;;;57.60;21.43;;;;;;;-2.66;100.00;100990.06;4198367;28;20588;-67
2022/12/03 07:44:30;;;;;;;58.70;22.13;;;;;;;-2.56;100.00;100988.00;4194030;28;20708;-67
2022/12/03 07:46:58;;;;;;;54.47;20.47;;;;;;;-2.64;100.00;100990.88;4196996;28;20263;-72
2022/12/03 07:49:25;;;;;;;52.10;20.30;;;;;;;-2.69;100.00;100987.56;4200335;28;20312;-67
2022/12/03 07:51:53;;;;;;;55.73;21.83;;;;;;;-2.56;100.00;100995.81;4202054;28;20327;-68
2022/12/03 07:54:20;;;;;;;52.13;21.27;;;;;;;-2.60;100.00;100989.88;4192436;28;23673;-69
2022/12/03 07:56:47;;;;;;;52.53;21.07;;;;;;;-2.49;100.00;100988.69;4193072;28;20233;-66
2022/12/03 07:59:14;;;;;;;56.57;21.83;;;;;;;-2.58;100.00;100985.44;4192958;28;20687;-64
2022/12/03 08:01:41;;;;;;;51.07;20.10;;;;;;;-2.51;100.00;100991.31;4197280;28;20300;-71
2022/12/03 08:04:07;;;;;;;52.97;21.07;;;;;;;-2.47;100.00;100985.13;4193927;28;22139;-69
2022/12/03 08:06:34;;;;;;;51.33;21.40;;;;;;;-2.67;100.00;100990.97;4211854;28;20298;-66
2022/12/03 08:09:00;;;;;;;51.47;21.67;;;;;;;-2.64;100.00;100987.41;4192031;28;20878;-71
2022/12/03 08:11:28;;;;;;;52.10;22.63;;;;;;;-2.69;100.00;100982.34;4194053;28;21283;-69
2022/12/03 08:13:55;;;;;;;55.97;23.43;;;;;;;-2.61;100.00;100990.75;4204049;28;20884;-67
2022/12/03 08:16:21;;;;;;;56.07;21.50;;;;;;;-2.53;100.00;100989.66;4216031;28;22866;-68
2022/12/03 08:18:49;;;;;;;55.57;22.67;;;;;;;-2.50;100.00;100982.63;4192602;28;20248;-67
2022/12/03 08:21:17;;;;;;;55.17;22.27;;;;;;;-2.76;100.00;100980.84;4196216;28;20233;-69
2022/12/03 08:23:44;;;;;;;58.07;23.63;;;;;;;-2.59;100.00;100978.53;4202283;28;20240;-66
2022/12/03 08:26:16;;;;;;;58.17;23.30;;;;;;;-2.51;100.00;100982.66;4221603;28;20424;-70
2022/12/03 08:28:43;;;;;;;50.83;22.10;;;;;;;-2.48;100.00;100985.16;4203974;28;21003;-69
2022/12/03 08:31:18;;;;;;;53.53;21.77;;;;;;;-2.44;100.00;100992.00;4192400;28;20237;-71
2022/12/03 08:33:49;;;;;;;54.73;23.40;;;;;;;-2.50;100.00;100987.84;4198704;28;20251;-68
2022/12/03 08:36:24;;;;;;;58.67;22.50;;;;;;;-2.41;100.00;100995.38;4199569;28;22726;-68
2022/12/03 08:38:54;;;;;;;52.47;21.53;;;;;;;-2.43;100.00;101001.53;4191307;28;20275;-67
2022/12/03 08:44:28;;;;;;;53.77;21.73;;;;;;;-2.33;100.00;101000.31;4216655;28;21077;-70
2022/12/03 08:47:20;;;;;;;58.67;23.07;;;;;;;-2.39;100.00;101000.50;4218225;28;20332;-71
2022/12/03 08:49:50;;;;;;;56.10;23.33;;;;;;;-2.41;100.00;100999.69;4204196;28;20237;-68
2022/12/03 08:52:21;;;;;;;56.53;24.37;;;;;;;-2.39;100.00;100995.28;4208518;28;20400;-69
2022/12/03 08:54:53;;;;;;;59.10;23.17;;;;;;;-2.49;100.00;100996.50;4214559;28;20305;-68
2022/12/03 08:57:34;;;;;;;56.77;23.90;;;;;;;-2.34;100.00;101006.44;4189042;28;20303;-68
2022/12/03 09:00:22;;;;;;;61.10;24.80;;;;;;;-2.29;100.00;100994.13;4201158;28;22076;-65
2022/12/03 09:02:51;;;;;;;60.63;24.20;;;;;;;-2.42;100.00;100984.97;4223931;28;20231;-66
2022/12/03 09:05:21;;;;;;;59.43;24.63;;;;;;;-2.43;100.00;100984.13;4190296;28;20233;-68
2022/12/03 09:07:48;;;;;;;58.57;22.83;;;;;;;-2.22;100.00;100982.59;4167096;28;21014;-67
2022/12/03 09:10:14;;;;;;;56.20;23.07;;;;;;;-2.12;100.00;100978.75;4191497;28;21658;-65
2022/12/03 09:12:41;;;;;;;56.13;23.83;;;;;;;-2.08;100.00;100983.88;4192959;28;20368;-66
2022/12/03 09:15:08;;;;;;;59.37;23.37;;;;;;;-1.97;100.00;100986.97;4194662;28;20226;-68
2022/12/03 09:17:35;;;;;;;59.30;24.53;;;;;;;-2.03;100.00;100981.97;4193454;28;20403;-67
2022/12/03 09:20:03;;;;;;;59.97;23.67;;;;;;;-1.99;100.00;100988.78;4188224;28;26910;-64
2022/12/03 09:22:29;;;;;;;60.03;25.20;;;;;;;-2.10;100.00;100980.47;4189499;28;20417;-65
2022/12/03 09:24:56;;;;;;;52.70;23.33;;;;;;;-2.03;100.00;100971.56;4197497;28;20405;-67
2022/12/03 09:27:23;;;;;;;56.50;23.93;;;;;;;-1.98;100.00;100969.63;4212064;28;20391;-66
2022/12/03 09:29:49;;;;;;;53.00;23.03;;;;;;;-1.83;100.00;100969.09;4205674;28;20390;-69
2022/12/03 09:32:16;;;;;;;62.23;22.80;;;;;;;-1.86;100.00;100971.81;4191424;28;20435;-68
2022/12/03 09:34:45;;;;;;;54.10;23.00;;;;;;;-1.85;100.00;100970.94;4196370;28;21262;-68
2022/12/03 09:37:11;;;;;;;54.93;22.93;;;;;;;-1.81;100.00;100971.66;4194009;28;20285;-70
2022/12/03 09:39:38;;;;;;;59.03;24.03;;;;;;;-1.78;100.00;100968.94;4198201;28;20376;-68
2022/12/03 09:42:04;;;;;;;60.70;24.83;;;;;;;-1.85;100.00;100970.06;4192191;28;26033;-67
2022/12/03 09:44:32;;;;;;;56.73;23.47;;;;;;;-1.77;100.00;100955.84;4196076;28;20231;-67
2022/12/03 09:47:00;;;;;;;52.33;21.90;;;;;;;-1.73;100.00;100965.28;4189341;28;20240;-68
2022/12/03 09:49:27;;;;;;;56.53;24.43;;;;;;;-1.63;100.00;100970.19;4193114;28;20280;-65
2022/12/03 09:51:55;;;;;;;61.23;23.67;;;;;;;-1.57;100.00;100964.72;4192674;28;20401;-67
2022/12/03 09:54:39;;;;;;;59.87;24.70;;;;;;;-1.61;100.00;100961.38;4194064;28;20235;-68
2022/12/03 09:57:12;;;;;;;60.83;24.17;;;;;;;-1.53;100.00;100955.88;4192500;28;20237;-69
2022/12/03 09:59:39;;;;;;;59.43;25.23;;;;;;;-1.57;100.00;100959.50;4191442;28;20226;-70
2022/12/03 10:02:24;;;;;;;55.83;23.90;;;;;;;-1.66;100.00;100954.59;4210313;28;20241;-65
2022/12/03 10:04:51;;;;;;;58.23;24.77;;;;;;;-1.68;100.00;100952.06;4200303;28;20348;-67
2022/12/03 10:07:19;;;;;;;60.67;25.20;;;;;;;-1.42;100.00;100958.97;4198544;28;21777;-67
2022/12/03 10:09:45;;;;;;;66.90;25.37;;;;;;;-1.33;100.00;100957.78;4188126;28;27166;-68
2022/12/03 10:12:13;;;;;;;57.33;24.27;;;;;;;-1.31;100.00;100953.38;4193096;28;23466;-67
2022/12/03 10:14:40;;;;;;;54.93;24.93;;;;;;;-1.24;100.00;100953.97;4199514;28;20309;-67
2022/12/03 10:17:09;;;;;;;56.83;25.80;;;;;;;-0.99;100.00;100946.06;4216804;28;22013;-69
2022/12/03 10:19:38;;;;;;;57.47;24.83;;;;;;;-0.67;100.00;100953.50;4194176;28;20233;-68
2022/12/03 10:22:04;;;;;;;57.43;23.67;;;;;;;-0.87;100.00;100946.47;4211916;28;21446;-67
2022/12/03 10:24:34;;;;;;;59.37;24.73;;;;;;;-0.99;100.00;100951.28;4219772;28;21891;-68
2022/12/03 10:27:03;;;;;;;56.20;25.23;;;;;;;-0.85;100.00;100949.00;4192780;28;20240;-68
2022/12/03 10:32:24;;;;;;;60.70;24.53;;;;;;;-0.93;100.00;100946.69;4204542;28;23006;-68
2022/12/03 10:35:28;;;;;;;56.97;23.73;;;;;;;-0.99;100.00;100956.50;4190089;28;20224;-67
2022/12/03 10:38:00;;;;;;;57.47;25.83;;;;;;;-1.06;100.00;100946.28;4222792;28;20420;-69
2022/12/03 10:40:35;;;;;;;61.50;25.83;;;;;;;-1.16;100.00;100959.75;4202114;28;23075;-68
2022/12/03 10:43:20;;;;;;;62.70;25.33;;;;;;;-1.02;100.00;100957.47;4200721;28;20236;-67
2022/12/03 10:45:51;;;;;;;60.47;25.03;;;;;;;-1.20;100.00;100940.75;4201907;28;21032;-68
2022/12/03 10:48:26;;;;;;;66.70;26.93;;;;;;;-1.19;100.00;100944.22;4202487;28;20339;-68
2022/12/03 10:51:12;;;;;;;59.17;25.73;;;;;;;-1.09;100.00;100929.91;4206403;28;20426;-67
2022/12/03 10:53:39;;;;;;;67.53;26.80;;;;;;;-0.98;100.00;100930.34;4210544;28;20307;-64
2022/12/03 10:56:07;;;;;;;69.27;25.70;;;;;;;-0.97;100.00;100932.03;4203324;28;20236;-70
2022/12/03 10:58:38;;;;;;;65.67;25.77;;;;;;;-1.02;100.00;100931.38;4191644;28;20237;-68
2022/12/03 11:01:14;;;;;;;77.33;28.67;;;;;;;-1.08;100.00;100932.47;4206990;28;20241;-68
2022/12/03 11:04:02;;;;;;;63.60;24.87;;;;;;;-1.08;100.00;100926.38;4201457;28;20650;-65
2022/12/03 11:06:38;;;;;;;62.97;26.50;;;;;;;-1.04;100.00;100927.97;4206836;28;20231;-64
2022/12/03 11:09:16;;;;;;;66.17;28.63;;;;;;;-1.10;100.00;100928.19;4193307;28;20228;-68
2022/12/03 11:12:25;;;;;;;68.43;26.27;;;;;;;-1.08;100.00;100928.97;4192572;28;20248;-70
2022/12/03 11:14:53;;;;;;;66.30;26.07;;;;;;;-1.08;100.00;100927.25;4221412;28;20286;-67
2022/12/03 11:17:40;;;;;;;64.80;24.70;;;;;;;-0.97;100.00;100925.97;4202213;28;26482;-70
2022/12/03 11:20:10;;;;;;;66.27;27.80;;;;;;;-0.91;100.00;100928.34;4206261;28;23548;-71
2022/12/03 11:22:45;;;;;;;66.83;27.23;;;;;;;-0.96;100.00;100941.59;4198442;28;20418;-68
2022/12/03 11:25:27;;;;;;;74.17;27.60;;;;;;;-1.00;100.00;100931.31;4196611;28;20224;-70
2022/12/03 11:28:20;;;;;;;65.93;27.67;;;;;;;-1.07;100.00;100933.31;4197970;28;20237;-68
2022/12/03 11:30:49;;;;;;;66.53;25.80;;;;;;;-1.02;100.00;100926.13;4211823;28;22089;-69
2022/12/03 11:33:27;;;;;;;62.90;26.03;;;;;;;-1.09;100.00;100925.53;4201333;28;20233;-70
2022/12/03 11:36:03;;;;;;;70.33;26.40;;;;;;;-1.13;100.00;100910.88;4216546;28;21678;-69
2022/12/03 11:38:55;;;;;;;66.17;26.63;;;;;;;-1.03;100.00;100921.84;4195596;28;20457;-69